createdAt,value
2017-10-03T00:23:29.518Z,-145.26
2017-10-03T04:01:12.850Z,10.09
2017-10-03T04:03:42.389Z,10.10
2017-10-03T04:06:10.717Z,10.07
2017-10-03T04:08:42.761Z,10.08
2017-10-03T04:11:11.906Z,10.08
2017-10-03T04:13:40.165Z,10.01
2017-10-03T04:16:09.174Z,10.05
2017-10-03T04:18:38.176Z,10.08
2017-10-03T04:21:06.416Z,10.06
2017-10-03T04:23:34.669Z,10.04
2017-10-03T04:26:02.905Z,10.08
2017-10-03T04:28:31.152Z,10.05
2017-10-03T04:30:59.388Z,10.09
2017-10-03T04:33:27.644Z,10.07
2017-10-03T04:35:55.885Z,10.09
2017-10-03T04:38:24.892Z,10.09
2017-10-03T04:40:53.136Z,10.06
2017-10-03T04:43:21.385Z,10.06
2017-10-03T04:45:49.623Z,10.09
2017-10-03T04:48:17.872Z,10.00
2017-10-03T04:50:46.886Z,10.03
2017-10-03T04:53:15.143Z,10.06
2017-10-03T04:55:44.157Z,10.01
2017-10-03T04:58:12.396Z,9.98
2017-10-03T05:00:40.642Z,9.92
2017-10-03T05:03:08.894Z,10.00
2017-10-03T05:05:37.138Z,9.99
2017-10-03T05:08:06.141Z,9.99
2017-10-03T05:10:35.162Z,10.01
2017-10-03T05:13:03.404Z,9.95
2017-10-03T05:15:32.412Z,9.94
2017-10-03T05:18:00.649Z,9.95
2017-10-03T05:20:29.658Z,9.94
2017-10-03T05:22:58.661Z,10.01
2017-10-03T05:25:27.678Z,9.98
2017-10-03T05:27:55.917Z,9.96
2017-10-03T05:30:24.930Z,9.98
2017-10-03T05:32:53.172Z,10.00
2017-10-03T05:35:21.427Z,9.93
2017-10-03T05:37:49.669Z,9.91
2017-10-03T05:40:17.915Z,10.04
2017-10-03T05:42:46.920Z,10.09
2017-10-03T05:45:15.961Z,-145.26
2017-10-03T05:47:44.225Z,-145.26
2017-10-03T05:50:12.481Z,-145.26
2017-10-03T05:52:40.741Z,-145.26
2017-10-03T05:55:09.778Z,-145.26
2017-10-03T05:57:38.038Z,-145.26
2017-10-03T06:00:06.297Z,-145.26
2017-10-03T06:02:34.560Z,-145.26
2017-10-03T06:05:03.588Z,-145.26
2017-10-03T06:07:31.842Z,-145.26
2017-10-03T06:10:00.110Z,-145.26
2017-10-03T06:12:29.130Z,-145.26
2017-10-03T06:14:57.390Z,-145.26
2017-10-03T06:17:25.647Z,-145.26
2017-10-03T06:19:54.677Z,-145.26
2017-10-03T06:22:22.934Z,-145.26
2017-10-03T06:24:51.197Z,-145.26
2017-10-03T06:27:20.219Z,-145.26
2017-10-03T06:29:48.491Z,-145.26
2017-10-03T06:32:16.741Z,-145.26
2017-10-03T06:34:45.004Z,-145.26
2017-10-03T06:37:14.034Z,-145.26
2017-10-03T06:39:42.293Z,-145.26
2017-10-03T06:42:10.551Z,-145.26
2017-10-03T06:44:39.586Z,-145.26
2017-10-03T06:47:07.841Z,-145.26
2017-10-03T06:49:36.100Z,-145.26
2017-10-03T06:52:05.141Z,-145.26
2017-10-03T06:54:33.414Z,-145.26
2017-10-03T06:57:01.661Z,-145.26
2017-10-03T06:59:29.905Z,10.38
2017-10-03T07:01:58.924Z,10.43
2017-10-03T07:04:27.950Z,10.34
2017-10-03T07:06:56.190Z,10.34
2017-10-03T07:09:25.190Z,10.44
2017-10-03T07:11:53.439Z,10.33
2017-10-03T07:14:22.450Z,10.43
2017-10-03T07:16:50.694Z,10.38
2017-10-03T07:19:18.933Z,10.40
2017-10-03T07:21:47.182Z,10.46
2017-10-03T07:24:15.430Z,10.42
2017-10-03T07:26:44.445Z,10.45
2017-10-03T07:29:12.690Z,10.47
2017-10-03T07:31:40.942Z,10.61
2017-10-03T07:34:09.193Z,10.64
2017-10-03T07:36:37.442Z,10.66
2017-10-03T07:39:06.447Z,10.77
2017-10-03T07:41:34.930Z,10.77
2017-10-03T07:44:03.173Z,10.77
2017-10-03T07:46:32.206Z,10.81
2017-10-03T07:49:00.454Z,10.98
2017-10-03T07:51:29.470Z,10.99
2017-10-03T07:53:57.718Z,11.18
2017-10-03T07:56:26.733Z,11.21
2017-10-03T07:58:54.990Z,11.22
2017-10-03T08:01:24.012Z,11.37
2017-10-03T08:03:52.257Z,11.31
2017-10-03T08:06:21.269Z,11.47
2017-10-03T08:08:49.520Z,11.51
2017-10-03T08:11:18.533Z,11.75
2017-10-03T08:13:46.793Z,11.57
2017-10-03T08:16:15.793Z,11.51
2017-10-03T08:18:44.061Z,11.47
2017-10-03T08:21:13.070Z,11.53
2017-10-03T08:23:41.320Z,11.53
2017-10-03T08:26:09.564Z,11.60
2017-10-03T08:28:37.815Z,11.44
2017-10-03T08:31:06.073Z,11.49
2017-10-03T08:33:34.317Z,11.59
2017-10-03T08:36:03.343Z,11.86
2017-10-03T08:38:31.586Z,12.06
2017-10-03T08:41:00.600Z,11.76
2017-10-03T08:43:28.861Z,11.55
2017-10-03T08:45:57.869Z,11.57
2017-10-03T08:48:26.886Z,11.50
2017-10-03T08:50:55.133Z,11.63
2017-10-03T08:53:24.154Z,11.40
2017-10-03T08:55:52.405Z,11.68
2017-10-03T08:58:21.410Z,11.73
2017-10-03T09:00:49.667Z,11.93
2017-10-03T09:05:46.245Z,11.98
2017-10-03T09:08:15.231Z,11.93
2017-10-03T09:10:43.490Z,12.12
2017-10-03T09:13:12.507Z,12.11
2017-10-03T09:15:40.751Z,12.62
2017-10-03T09:18:09.765Z,12.62
2017-10-03T09:20:38.013Z,12.97
2017-10-03T09:23:07.026Z,12.82
2017-10-03T09:25:36.038Z,12.79
2017-10-03T09:28:04.285Z,13.13
2017-10-03T09:30:33.304Z,12.83
2017-10-03T09:33:01.550Z,12.70
2017-10-03T09:35:30.570Z,13.10
2017-10-03T09:37:58.817Z,13.27
2017-10-03T09:40:27.829Z,13.42
2017-10-03T09:42:56.074Z,13.72
2017-10-03T09:45:25.098Z,13.77
2017-10-03T09:47:53.333Z,13.58
2017-10-03T09:50:21.578Z,13.05
2017-10-03T09:52:49.822Z,13.11
2017-10-03T09:55:18.070Z,13.08
2017-10-03T09:57:47.818Z,13.45
2017-10-03T10:00:16.074Z,13.53
2017-10-03T10:02:45.083Z,13.81
2017-10-03T10:05:13.334Z,14.34
2017-10-03T10:07:42.342Z,14.15
2017-10-03T10:10:11.357Z,13.54
2017-10-03T10:12:39.599Z,13.21
2017-10-03T10:15:08.620Z,13.21
2017-10-03T10:17:36.857Z,13.20
2017-10-03T10:20:05.874Z,13.13
2017-10-03T10:22:34.124Z,13.40
2017-10-03T10:25:03.146Z,13.66
2017-10-03T10:27:31.448Z,13.07
2017-10-03T10:29:59.684Z,13.01
2017-10-03T10:32:28.701Z,12.85
2017-10-03T10:34:56.948Z,12.64
2017-10-03T10:37:25.957Z,12.61
2017-10-03T10:39:54.215Z,12.66
2017-10-03T10:42:23.221Z,12.47
2017-10-03T10:44:51.469Z,12.61
2017-10-03T10:47:20.477Z,12.67
2017-10-03T10:49:49.509Z,12.70
2017-10-03T10:52:17.749Z,12.82
2017-10-03T10:54:46.777Z,13.24
2017-10-03T10:57:15.092Z,13.59
2017-10-03T10:59:44.362Z,13.71
2017-10-03T11:02:12.689Z,14.05
2017-10-03T11:04:44.529Z,15.43
2017-10-03T11:07:23.523Z,14.92
2017-10-03T11:09:51.844Z,14.49
2017-10-03T11:12:20.178Z,14.04
2017-10-03T11:14:48.633Z,13.76
2017-10-03T11:17:16.968Z,13.94
2017-10-03T11:19:45.296Z,13.76
2017-10-03T11:22:14.792Z,14.63
2017-10-03T11:24:45.408Z,14.73
2017-10-03T11:27:14.470Z,15.58
2017-10-03T11:29:42.762Z,15.34
2017-10-03T11:32:11.073Z,15.43
2017-10-03T11:34:59.596Z,14.91
2017-10-03T11:37:28.732Z,15.13
2017-10-03T11:39:59.706Z,16.56
2017-10-03T11:42:28.004Z,16.07
2017-10-03T11:44:56.349Z,15.65
2017-10-03T11:47:25.442Z,14.85
2017-10-03T11:49:53.823Z,14.43
2017-10-03T11:52:22.163Z,15.09
2017-10-03T11:54:50.484Z,14.50
2017-10-03T11:57:18.775Z,14.62
2017-10-03T11:59:47.824Z,16.37
2017-10-03T12:02:16.145Z,15.96
2017-10-03T12:04:45.267Z,17.06
2017-10-03T12:07:13.601Z,14.74
2017-10-03T12:09:41.905Z,15.56
2017-10-03T12:12:10.153Z,17.57
2017-10-03T12:14:38.399Z,15.45
2017-10-03T12:17:06.645Z,14.99
2017-10-03T12:19:35.156Z,14.40
2017-10-03T12:22:03.522Z,14.37
2017-10-03T12:24:31.904Z,13.94
2017-10-03T12:27:00.249Z,13.86
2017-10-03T12:29:28.591Z,13.46
2017-10-03T12:31:56.896Z,13.57
2017-10-03T12:34:26.122Z,13.23
2017-10-03T12:36:56.835Z,13.00
2017-10-03T12:39:25.198Z,13.37
2017-10-03T12:41:55.419Z,13.44
2017-10-03T12:44:25.659Z,13.79
2017-10-03T12:46:54.040Z,14.31
2017-10-03T12:49:31.994Z,17.31
2017-10-03T12:52:00.247Z,19.19
2017-10-03T12:54:28.494Z,16.29
2017-10-03T12:56:56.746Z,17.31
2017-10-03T12:59:25.763Z,16.98
2017-10-03T13:01:54.009Z,18.23
2017-10-03T13:04:23.021Z,16.56
2017-10-03T13:06:51.269Z,16.67
2017-10-03T13:09:19.501Z,15.45
2017-10-03T13:11:47.755Z,14.61
2017-10-03T13:14:15.998Z,14.28
2017-10-03T13:16:44.247Z,14.41
2017-10-03T13:19:12.489Z,14.54
2017-10-03T13:21:40.747Z,14.04
2017-10-03T13:24:08.994Z,14.69
2017-10-03T13:26:37.241Z,14.20
2017-10-03T13:29:05.489Z,14.04
2017-10-03T13:31:33.738Z,14.21
2017-10-03T13:34:02.744Z,14.17
2017-10-03T13:36:31.005Z,13.45
2017-10-03T13:39:00.016Z,13.49
2017-10-03T13:41:28.276Z,13.57
2017-10-03T13:43:56.522Z,13.67
2017-10-03T13:46:24.762Z,13.80
2017-10-03T13:48:53.010Z,14.06
2017-10-03T13:51:21.248Z,14.33
2017-10-03T13:53:49.502Z,14.30
2017-10-03T13:56:17.754Z,16.78
2017-10-03T13:58:46.004Z,15.04
2017-10-03T14:01:14.255Z,15.80
2017-10-03T14:03:42.499Z,14.64
2017-10-03T14:06:10.732Z,14.79
2017-10-03T14:08:38.976Z,14.75
2017-10-03T14:11:07.217Z,15.14
2017-10-03T14:13:35.473Z,16.95
2017-10-03T14:16:03.709Z,16.28
2017-10-03T14:18:32.717Z,15.11
2017-10-03T14:21:01.729Z,14.83
2017-10-03T14:23:29.978Z,14.33
2017-10-03T14:25:58.990Z,14.59
2017-10-03T14:28:27.230Z,15.20
2017-10-03T14:30:55.489Z,16.87
2017-10-03T14:33:23.737Z,16.25
2017-10-03T14:35:51.977Z,15.46
2017-10-03T14:38:20.986Z,18.33
2017-10-03T14:40:49.232Z,17.06
2017-10-03T14:43:18.242Z,16.53
2017-10-03T14:45:47.269Z,16.21
2017-10-03T14:48:15.509Z,16.07
2017-10-03T14:50:44.521Z,14.79
2017-10-03T14:53:12.762Z,14.57
2017-10-03T14:55:41.004Z,14.45
2017-10-03T14:58:09.254Z,14.34
2017-10-03T15:00:37.496Z,13.94
2017-10-03T15:03:06.506Z,13.77
2017-10-03T15:05:34.744Z,13.61
2017-10-03T15:08:03.002Z,13.48
2017-10-03T15:10:31.247Z,13.36
2017-10-03T15:12:59.493Z,13.10
2017-10-03T15:15:28.501Z,12.64
2017-10-03T15:17:56.758Z,12.88
2017-10-03T15:20:25.770Z,12.63
2017-10-03T15:22:54.026Z,12.54
2017-10-03T15:25:23.033Z,12.39
2017-10-03T15:27:51.290Z,12.34
2017-10-03T15:30:20.297Z,12.46
2017-10-03T15:32:48.565Z,12.54
2017-10-03T15:35:17.573Z,12.66
2017-10-03T15:37:45.821Z,12.66
2017-10-03T15:40:14.070Z,12.37
2017-10-03T15:42:42.314Z,12.68
2017-10-03T15:45:10.562Z,12.44
2017-10-03T15:47:39.574Z,12.75
2017-10-03T15:50:07.825Z,12.65
2017-10-03T15:52:36.827Z,12.61
2017-10-03T15:55:05.847Z,12.54
2017-10-03T15:57:34.084Z,12.55
2017-10-03T16:00:03.098Z,12.39
2017-10-03T16:02:31.345Z,12.51
2017-10-03T16:05:00.378Z,12.41
2017-10-03T16:07:28.631Z,12.41
2017-10-03T16:09:57.653Z,12.35
2017-10-03T16:12:28.767Z,12.33
2017-10-03T16:14:57.104Z,12.42
2017-10-03T16:17:25.435Z,12.32
2017-10-03T16:19:53.791Z,12.45
2017-10-03T16:22:22.149Z,12.44
2017-10-03T16:24:50.583Z,12.42
2017-10-03T16:27:19.026Z,12.51
2017-10-03T16:29:48.241Z,12.50
2017-10-03T16:32:16.571Z,12.59
2017-10-03T16:34:44.890Z,12.46
2017-10-03T16:37:13.334Z,12.53
2017-10-03T16:39:41.758Z,12.39
2017-10-03T16:42:10.222Z,12.41
2017-10-03T16:44:40.180Z,12.25
2017-10-03T16:47:08.592Z,12.21
2017-10-03T16:49:56.898Z,12.12
2017-10-03T16:52:25.346Z,12.05
2017-10-03T16:54:54.561Z,12.11
2017-10-03T16:57:23.037Z,12.05
2017-10-03T16:59:51.359Z,12.05
2017-10-03T17:02:19.721Z,12.07
2017-10-03T17:04:48.127Z,12.04
2017-10-03T17:07:16.451Z,12.00
2017-10-03T17:09:44.825Z,11.98
2017-10-03T17:12:13.169Z,11.90
2017-10-03T17:14:41.487Z,11.88
2017-10-03T17:17:09.805Z,11.80
2017-10-03T17:19:38.294Z,11.78
2017-10-03T17:22:06.687Z,11.78
2017-10-03T17:24:35.828Z,11.73
2017-10-03T17:27:04.158Z,11.73
2017-10-03T17:29:32.467Z,11.66
2017-10-03T17:32:01.566Z,11.62
2017-10-03T17:34:30.646Z,11.63
2017-10-03T17:37:09.656Z,11.53
2017-10-03T17:39:38.787Z,11.63
2017-10-03T17:42:07.046Z,11.66
2017-10-03T17:44:36.085Z,11.63
2017-10-03T17:47:04.331Z,11.70
2017-10-03T17:49:32.576Z,11.70
2017-10-03T17:52:00.834Z,11.64
2017-10-03T17:54:41.364Z,11.69
2017-10-03T17:57:09.659Z,11.64
2017-10-03T17:59:37.952Z,11.70
2017-10-03T18:02:06.252Z,11.72
2017-10-03T18:04:34.585Z,11.72
2017-10-03T18:07:02.851Z,11.75
2017-10-03T18:09:31.131Z,11.73
2017-10-03T18:11:59.691Z,11.72
2017-10-03T18:14:28.018Z,11.61
2017-10-03T18:16:58.664Z,11.60
2017-10-03T18:19:27.273Z,11.53
2017-10-03T18:21:56.413Z,11.47
2017-10-03T18:24:24.754Z,11.37
2017-10-03T18:26:53.045Z,11.41
2017-10-03T18:29:24.368Z,11.36
2017-10-03T18:31:53.411Z,11.32
2017-10-03T18:34:21.654Z,11.26
2017-10-03T18:39:54.294Z,11.27
2017-10-03T18:42:22.528Z,11.22
2017-10-03T18:44:50.782Z,11.31
2017-10-03T18:47:19.026Z,11.26
2017-10-03T18:49:47.293Z,11.22
2017-10-03T18:52:16.298Z,11.21
2017-10-03T18:54:44.548Z,11.17
2017-10-03T18:57:13.567Z,11.15
2017-10-03T18:59:41.808Z,11.18
2017-10-03T19:02:10.056Z,11.06
2017-10-03T19:04:38.306Z,11.01
2017-10-03T19:07:06.556Z,10.97
2017-10-03T19:09:35.571Z,10.99
2017-10-03T19:12:04.967Z,10.94
2017-10-03T19:14:33.454Z,10.92
2017-10-03T19:17:01.697Z,10.84
2017-10-03T19:19:31.058Z,10.83
2017-10-03T19:21:59.301Z,10.74
2017-10-03T19:24:27.549Z,10.73
2017-10-03T19:26:56.624Z,10.75
2017-10-03T19:29:24.858Z,10.84
2017-10-03T19:31:53.358Z,10.75
2017-10-03T19:34:21.607Z,10.72
2017-10-03T19:36:49.905Z,10.73
2017-10-03T19:39:18.145Z,10.72
2017-10-03T19:41:46.469Z,10.70
2017-10-03T19:44:14.744Z,10.68
2017-10-03T19:46:43.121Z,10.69
2017-10-03T19:49:11.368Z,10.68
2017-10-03T19:51:39.614Z,10.68
2017-10-03T19:54:08.635Z,10.69
2017-10-03T19:56:36.941Z,10.69
2017-10-03T19:59:05.237Z,10.71
2017-10-03T20:01:33.473Z,10.69
2017-10-03T20:04:01.844Z,10.74
2017-10-03T20:06:30.080Z,10.73
2017-10-03T20:08:59.086Z,10.81
2017-10-03T20:11:27.346Z,10.95
2017-10-03T20:13:56.377Z,10.97
2017-10-03T20:16:24.625Z,11.03
2017-10-03T20:18:53.649Z,11.03
2017-10-03T20:21:21.952Z,11.05
2017-10-03T20:23:50.194Z,11.07
2017-10-03T20:26:18.450Z,11.09
2017-10-03T20:28:46.693Z,11.03
2017-10-03T20:31:14.946Z,10.95
2017-10-03T20:33:43.195Z,10.97
2017-10-03T20:36:11.454Z,10.87
2017-10-03T20:38:39.715Z,10.88
2017-10-03T20:41:08.721Z,10.89
2017-10-03T20:43:36.975Z,10.98
2017-10-03T20:46:05.998Z,10.98
2017-10-03T20:48:34.246Z,11.05
2017-10-03T20:51:03.258Z,11.04
2017-10-03T20:53:31.509Z,11.03
2017-10-03T20:56:00.518Z,11.01
2017-10-03T20:58:29.542Z,11.00
2017-10-03T21:00:57.781Z,11.03
2017-10-03T21:03:26.797Z,11.03
2017-10-03T21:05:55.064Z,11.05
2017-10-03T21:08:23.317Z,11.03
2017-10-03T21:10:52.339Z,11.00
2017-10-03T21:13:20.593Z,10.94
2017-10-03T21:15:49.682Z,10.94
2017-10-03T21:18:18.703Z,10.86
2017-10-03T21:20:46.994Z,10.79
2017-10-03T21:23:15.258Z,10.81
2017-10-03T21:25:43.505Z,10.88
2017-10-03T21:28:12.516Z,10.78
2017-10-03T21:30:40.764Z,10.76
2017-10-03T21:33:09.091Z,10.78
2017-10-03T21:35:37.363Z,10.68
2017-10-03T21:38:05.605Z,10.65
2017-10-03T21:40:34.623Z,10.63
2017-10-03T21:43:15.007Z,10.61
2017-10-03T21:45:43.264Z,10.56
2017-10-03T21:48:11.534Z,10.49
2017-10-03T21:50:39.816Z,10.45
2017-10-03T21:53:08.152Z,10.38
2017-10-03T21:55:36.386Z,10.38
2017-10-03T21:58:05.262Z,10.31
2017-10-03T22:00:33.506Z,10.31
2017-10-03T22:03:02.519Z,10.32
2017-10-03T22:05:30.801Z,10.28
2017-10-03T22:07:59.186Z,10.23
2017-10-03T22:10:27.467Z,10.21
2017-10-03T22:12:55.723Z,10.18
2017-10-03T22:15:23.971Z,10.10
2017-10-03T22:17:52.209Z,10.08
2017-10-03T22:20:21.240Z,10.18
2017-10-03T22:22:49.597Z,10.11
2017-10-03T22:25:18.133Z,10.14
2017-10-03T22:27:46.479Z,10.11
2017-10-03T22:30:14.790Z,10.08
2017-10-03T22:32:58.078Z,10.09
2017-10-03T22:35:26.350Z,10.12
2017-10-03T22:37:54.618Z,10.13
2017-10-03T22:40:22.863Z,10.07
2017-10-03T22:42:51.155Z,10.05
2017-10-03T22:45:19.748Z,10.14
2017-10-03T22:47:47.982Z,10.20
2017-10-03T22:50:16.241Z,10.16
2017-10-03T22:52:44.486Z,10.16
2017-10-03T22:55:12.734Z,10.15
2017-10-03T22:57:41.742Z,10.30
2017-10-03T23:00:09.994Z,10.32
2017-10-03T23:02:38.237Z,10.23
2017-10-03T23:05:06.757Z,10.20
2017-10-03T23:07:35.070Z,10.12
2017-10-03T23:10:03.454Z,10.12
2017-10-03T23:12:31.687Z,10.02
2017-10-03T23:15:00.694Z,9.94
2017-10-03T23:17:29.085Z,9.86
2017-10-03T23:19:57.330Z,9.81
2017-10-03T23:22:26.338Z,9.81
2017-10-03T23:24:54.638Z,9.69
2017-10-03T23:27:22.885Z,9.62
2017-10-03T23:29:51.894Z,9.54
2017-10-03T23:32:20.194Z,9.54
2017-10-03T23:34:48.441Z,9.49
2017-10-03T23:37:16.677Z,9.46
2017-10-03T23:39:44.924Z,9.43
2017-10-03T23:42:13.157Z,9.45
2017-10-03T23:44:41.411Z,9.37
2017-10-03T23:47:09.655Z,9.41
2017-10-03T23:49:38.662Z,9.41
2017-10-03T23:52:06.895Z,9.37
2017-10-03T23:54:35.147Z,9.34
2017-10-03T23:57:03.398Z,9.30
2017-10-03T23:59:31.642Z,9.34
